sensor_id;sensor_type;location;lat;lon;timestamp;temperature;humidity
20512;DHT22;10414;52.074;5.126;2023-11-18T00:01:58;7.20;99.90
20512;DHT22;10414;52.074;5.126;2023-11-18T00:04:25;7.00;99.90
20512;DHT22;10414;52.074;5.126;2023-11-18T00:06:53;7.10;99.90
20512;DHT22;10414;52.074;5.126;2023-11-18T00:09:23;6.90;99.90
20512;DHT22;10414;52.074;5.126;2023-11-18T00:11:50;7.50;99.90
20512;DHT22;10414;52.074;5.126;2023-11-18T00:14:17;7.70;99.90
20512;DHT22;10414;52.074;5.126;2023-11-18T00:16:46;7.40;99.90
20512;DHT22;10414;52.074;5.126;2023-11-18T00:19:13;7.50;99.90
20512;DHT22;10414;52.074;5.126;2023-11-18T00:21:42;7.40;99.90
20512;DHT22;10414;52.074;5.126;2023-11-18T00:24:11;7.50;99.90
20512;DHT22;10414;52.074;5.126;2023-11-18T00:26:38;7.70;99.90
20512;DHT22;10414;52.074;5.126;2023-11-18T00:29:05;8.00;99.90
20512;DHT22;10414;52.074;5.126;2023-11-18T00:31:33;7.80;99.90
20512;DHT22;10414;52.074;5.126;2023-11-18T00:34:05;7.90;99.90
20512;DHT22;10414;52.074;5.126;2023-11-18T00:36:31;8.10;99.90
20512;DHT22;10414;52.074;5.126;2023-11-18T00:38:58;7.80;99.90
20512;DHT22;10414;52.074;5.126;2023-11-18T00:41:26;7.90;99.90
20512;DHT22;10414;52.074;5.126;2023-11-18T00:43:55;8.10;99.90
20512;DHT22;10414;52.074;5.126;2023-11-18T00:46:22;8.10;99.90
20512;DHT22;10414;52.074;5.126;2023-11-18T00:48:49;7.80;99.90
20512;DHT22;10414;52.074;5.126;2023-11-18T00:54:04;7.90;99.90
20512;DHT22;10414;52.074;5.126;2023-11-18T00:56:32;7.70;99.90
20512;DHT22;10414;52.074;5.126;2023-11-18T00:58:59;7.90;99.90
20512;DHT22;10414;52.074;5.126;2023-11-18T01:01:26;7.70;99.90
20512;DHT22;10414;52.074;5.126;2023-11-18T01:03:53;7.20;99.90
20512;DHT22;10414;52.074;5.126;2023-11-18T01:06:20;7.00;99.90
20512;DHT22;10414;52.074;5.126;2023-11-18T01:08:47;7.00;99.90
20512;DHT22;10414;52.074;5.126;2023-11-18T01:11:16;6.80;99.90
20512;DHT22;10414;52.074;5.126;2023-11-18T01:13:45;6.60;99.90
20512;DHT22;10414;52.074;5.126;2023-11-18T01:16:12;6.60;99.90
20512;DHT22;10414;52.074;5.126;2023-11-18T01:18:40;6.50;99.90
20512;DHT22;10414;52.074;5.126;2023-11-18T01:21:07;6.50;99.90
20512;DHT22;10414;52.074;5.126;2023-11-18T01:23:35;6.90;99.90
20512;DHT22;10414;52.074;5.126;2023-11-18T01:26:03;7.20;99.90
20512;DHT22;10414;52.074;5.126;2023-11-18T01:28:33;7.00;99.90
20512;DHT22;10414;52.074;5.126;2023-11-18T01:31:04;7.30;99.90
20512;DHT22;10414;52.074;5.126;2023-11-18T01:33:31;7.40;99.90
20512;DHT22;10414;52.074;5.126;2023-11-18T01:35:58;7.20;99.90
20512;DHT22;10414;52.074;5.126;2023-11-18T01:38:28;7.20;99.90
20512;DHT22;10414;52.074;5.126;2023-11-18T01:40:56;7.30;99.90
20512;DHT22;10414;52.074;5.126;2023-11-18T01:43:23;7.40;99.90
20512;DHT22;10414;52.074;5.126;2023-11-18T01:45:51;7.50;99.90
20512;DHT22;10414;52.074;5.126;2023-11-18T01:48:20;7.40;99.90
20512;DHT22;10414;52.074;5.126;2023-11-18T01:50:48;7.40;99.90
20512;DHT22;10414;52.074;5.126;2023-11-18T01:53:18;7.50;99.90
20512;DHT22;10414;52.074;5.126;2023-11-18T01:55:45;7.60;99.90
20512;DHT22;10414;52.074;5.126;2023-11-18T01:58:14;7.70;99.90
20512;DHT22;10414;52.074;5.126;2023-11-18T02:00:45;7.40;99.90
20512;DHT22;10414;52.074;5.126;2023-11-18T02:03:13;7.20;99.90
20512;DHT22;10414;52.074;5.126;2023-11-18T02:05:41;6.90;99.90
20512;DHT22;10414;52.074;5.126;2023-11-18T02:08:14;6.80;99.90
20512;DHT22;10414;52.074;5.126;2023-11-18T02:10:47;6.90;99.90
20512;DHT22;10414;52.074;5.126;2023-11-18T02:13:22;6.80;99.90
20512;DHT22;10414;52.074;5.126;2023-11-18T02:15:53;6.90;99.90
20512;DHT22;10414;52.074;5.126;2023-11-18T02:18:26;7.20;99.90
20512;DHT22;10414;52.074;5.126;2023-11-18T02:20:55;7.00;99.90
20512;DHT22;10414;52.074;5.126;2023-11-18T02:23:25;7.10;99.90
20512;DHT22;10414;52.074;5.126;2023-11-18T02:25:56;7.50;99.90
20512;DHT22;10414;52.074;5.126;2023-11-18T02:28:23;7.50;99.90
20512;DHT22;10414;52.074;5.126;2023-11-18T02:30:54;7.70;99.90
20512;DHT22;10414;52.074;5.126;2023-11-18T02:33:36;7.50;99.90
20512;DHT22;10414;52.074;5.126;2023-11-18T02:36:10;7.20;99.90
20512;DHT22;10414;52.074;5.126;2023-11-18T02:38:49;7.20;99.90
20512;DHT22;10414;52.074;5.126;2023-11-18T02:41:22;7.50;99.90
20512;DHT22;10414;52.074;5.126;2023-11-18T02:43:51;7.50;99.90
20512;DHT22;10414;52.074;5.126;2023-11-18T02:46:18;7.70;99.90
20512;DHT22;10414;52.074;5.126;2023-11-18T02:48:47;7.80;99.90
20512;DHT22;10414;52.074;5.126;2023-11-18T02:51:14;7.50;99.90
20512;DHT22;10414;52.074;5.126;2023-11-18T02:53:42;7.30;99.90
20512;DHT22;10414;52.074;5.126;2023-11-18T02:56:13;7.00;99.90
20512;DHT22;10414;52.074;5.126;2023-11-18T02:58:41;7.00;99.90
20512;DHT22;10414;52.074;5.126;2023-11-18T03:01:08;6.90;99.90
20512;DHT22;10414;52.074;5.126;2023-11-18T03:03:35;6.90;99.90
20512;DHT22;10414;52.074;5.126;2023-11-18T03:06:05;7.10;99.90
20512;DHT22;10414;52.074;5.126;2023-11-18T03:08:32;7.20;99.90
20512;DHT22;10414;52.074;5.126;2023-11-18T03:10:59;7.30;99.90
20512;DHT22;10414;52.074;5.126;2023-11-18T03:13:28;7.30;99.90
20512;DHT22;10414;52.074;5.126;2023-11-18T03:15:56;7.30;99.90
20512;DHT22;10414;52.074;5.126;2023-11-18T03:18:23;7.20;99.90
20512;DHT22;10414;52.074;5.126;2023-11-18T03:20:49;7.30;99.90
20512;DHT22;10414;52.074;5.126;2023-11-18T03:23:17;7.30;99.90
20512;DHT22;10414;52.074;5.126;2023-11-18T03:25:44;7.30;99.90
20512;DHT22;10414;52.074;5.126;2023-11-18T03:28:12;7.40;99.90
20512;DHT22;10414;52.074;5.126;2023-11-18T03:30:40;7.40;99.90
20512;DHT22;10414;52.074;5.126;2023-11-18T03:33:10;7.50;99.90
20512;DHT22;10414;52.074;5.126;2023-11-18T03:35:37;7.50;99.90
20512;DHT22;10414;52.074;5.126;2023-11-18T03:38:04;7.80;99.90
20512;DHT22;10414;52.074;5.126;2023-11-18T03:40:31;7.60;99.90
20512;DHT22;10414;52.074;5.126;2023-11-18T03:43:00;7.60;99.90
20512;DHT22;10414;52.074;5.126;2023-11-18T03:45:28;7.60;99.90
20512;DHT22;10414;52.074;5.126;2023-11-18T03:47:58;7.30;99.90
20512;DHT22;10414;52.074;5.126;2023-11-18T03:50:27;7.00;99.90
20512;DHT22;10414;52.074;5.126;2023-11-18T03:52:54;7.00;99.90
20512;DHT22;10414;52.074;5.126;2023-11-18T03:55:24;7.30;99.90
20512;DHT22;10414;52.074;5.126;2023-11-18T03:57:52;7.20;99.90
20512;DHT22;10414;52.074;5.126;2023-11-18T04:00:20;7.30;99.90
20512;DHT22;10414;52.074;5.126;2023-11-18T04:02:47;7.50;99.90
20512;DHT22;10414;52.074;5.126;2023-11-18T04:05:14;7.50;99.90
20512;DHT22;10414;52.074;5.126;2023-11-18T04:07:42;7.50;99.90
20512;DHT22;10414;52.074;5.126;2023-11-18T04:10:12;7.30;99.90
20512;DHT22;10414;52.074;5.126;2023-11-18T04:12:39;7.20;99.90
20512;DHT22;10414;52.074;5.126;2023-11-18T04:15:06;7.10;99.90
20512;DHT22;10414;52.074;5.126;2023-11-18T04:17:33;7.30;99.90
20512;DHT22;10414;52.074;5.126;2023-11-18T04:20:00;7.20;99.90
20512;DHT22;10414;52.074;5.126;2023-11-18T04:22:30;7.10;99.90
20512;DHT22;10414;52.074;5.126;2023-11-18T04:24:58;7.30;99.90
20512;DHT22;10414;52.074;5.126;2023-11-18T04:27:28;7.10;99.90
20512;DHT22;10414;52.074;5.126;2023-11-18T04:29:59;7.40;99.90
20512;DHT22;10414;52.074;5.126;2023-11-18T04:32:27;7.10;99.90
20512;DHT22;10414;52.074;5.126;2023-11-18T04:34:57;7.10;99.90
20512;DHT22;10414;52.074;5.126;2023-11-18T04:37:24;7.00;99.90
20512;DHT22;10414;52.074;5.126;2023-11-18T04:39:54;7.20;99.90
20512;DHT22;10414;52.074;5.126;2023-11-18T04:42:24;7.20;99.90
20512;DHT22;10414;52.074;5.126;2023-11-18T04:44:51;7.30;99.90
20512;DHT22;10414;52.074;5.126;2023-11-18T04:47:18;7.50;99.90
20512;DHT22;10414;52.074;5.126;2023-11-18T04:49:44;7.60;99.90
20512;DHT22;10414;52.074;5.126;2023-11-18T04:52:11;7.70;99.90
20512;DHT22;10414;52.074;5.126;2023-11-18T04:54:38;7.60;99.90
20512;DHT22;10414;52.074;5.126;2023-11-18T04:57:05;7.60;99.90
20512;DHT22;10414;52.074;5.126;2023-11-18T04:59:36;7.60;99.90
20512;DHT22;10414;52.074;5.126;2023-11-18T05:02:03;7.60;99.90
20512;DHT22;10414;52.074;5.126;2023-11-18T05:04:31;7.60;99.90
20512;DHT22;10414;52.074;5.126;2023-11-18T05:07:01;7.60;99.90
20512;DHT22;10414;52.074;5.126;2023-11-18T05:09:29;7.50;99.90
20512;DHT22;10414;52.074;5.126;2023-11-18T05:11:57;7.40;99.90
20512;DHT22;10414;52.074;5.126;2023-11-18T05:14:24;7.30;99.90
20512;DHT22;10414;52.074;5.126;2023-11-18T05:16:53;7.20;99.90
20512;DHT22;10414;52.074;5.126;2023-11-18T05:19:20;7.50;99.90
20512;DHT22;10414;52.074;5.126;2023-11-18T05:21:53;7.40;99.90
20512;DHT22;10414;52.074;5.126;2023-11-18T05:24:20;7.20;99.90
20512;DHT22;10414;52.074;5.126;2023-11-18T05:26:47;7.20;99.90
20512;DHT22;10414;52.074;5.126;2023-11-18T05:29:17;7.20;99.90
20512;DHT22;10414;52.074;5.126;2023-11-18T05:31:47;7.30;99.90
20512;DHT22;10414;52.074;5.126;2023-11-18T05:34:18;7.30;99.90
20512;DHT22;10414;52.074;5.126;2023-11-18T05:36:46;7.40;99.90
20512;DHT22;10414;52.074;5.126;2023-11-18T05:39:16;7.40;99.90
20512;DHT22;10414;52.074;5.126;2023-11-18T05:41:45;7.40;99.90
20512;DHT22;10414;52.074;5.126;2023-11-18T05:44:15;7.50;99.90
20512;DHT22;10414;52.074;5.126;2023-11-18T05:46:45;7.40;99.90
20512;DHT22;10414;52.074;5.126;2023-11-18T05:49:14;7.40;99.90
20512;DHT22;10414;52.074;5.126;2023-11-18T05:51:41;7.50;99.90
20512;DHT22;10414;52.074;5.126;2023-11-18T05:54:08;7.40;99.90
20512;DHT22;10414;52.074;5.126;2023-11-18T05:56:35;7.20;99.90
20512;DHT22;10414;52.074;5.126;2023-11-18T05:59:03;7.20;99.90
20512;DHT22;10414;52.074;5.126;2023-11-18T06:01:34;7.20;99.90
20512;DHT22;10414;52.074;5.126;2023-11-18T06:04:02;7.30;99.90
20512;DHT22;10414;52.074;5.126;2023-11-18T06:06:31;7.30;99.90
20512;DHT22;10414;52.074;5.126;2023-11-18T06:09:00;7.20;99.90
20512;DHT22;10414;52.074;5.126;2023-11-18T06:11:31;7.20;99.90
20512;DHT22;10414;52.074;5.126;2023-11-18T06:14:01;7.10;99.90
20512;DHT22;10414;52.074;5.126;2023-11-18T06:16:34;7.10;99.90
20512;DHT22;10414;52.074;5.126;2023-11-18T06:19:01;7.20;99.90
20512;DHT22;10414;52.074;5.126;2023-11-18T06:21:32;7.20;99.90
20512;DHT22;10414;52.074;5.126;2023-11-18T06:23:59;7.20;99.90
20512;DHT22;10414;52.074;5.126;2023-11-18T06:26:27;7.20;99.90
20512;DHT22;10414;52.074;5.126;2023-11-18T06:28:58;7.10;99.90
20512;DHT22;10414;52.074;5.126;2023-11-18T06:31:25;7.10;99.90
20512;DHT22;10414;52.074;5.126;2023-11-18T06:33:58;7.00;99.90
20512;DHT22;10414;52.074;5.126;2023-11-18T06:36:25;7.10;99.90
20512;DHT22;10414;52.074;5.126;2023-11-18T06:38:56;7.10;99.90
20512;DHT22;10414;52.074;5.126;2023-11-18T06:41:24;7.10;99.90
20512;DHT22;10414;52.074;5.126;2023-11-18T06:43:59;7.10;99.90
20512;DHT22;10414;52.074;5.126;2023-11-18T06:46:34;7.10;99.90
20512;DHT22;10414;52.074;5.126;2023-11-18T06:49:05;7.10;99.90
20512;DHT22;10414;52.074;5.126;2023-11-18T06:51:34;7.10;99.90
20512;DHT22;10414;52.074;5.126;2023-11-18T06:54:05;7.10;99.90
20512;DHT22;10414;52.074;5.126;2023-11-18T06:56:35;7.00;99.90
20512;DHT22;10414;52.074;5.126;2023-11-18T06:59:06;7.00;99.90
20512;DHT22;10414;52.074;5.126;2023-11-18T07:01:34;7.00;99.90
20512;DHT22;10414;52.074;5.126;2023-11-18T07:04:01;7.10;99.90
20512;DHT22;10414;52.074;5.126;2023-11-18T07:06:28;7.10;99.90
20512;DHT22;10414;52.074;5.126;2023-11-18T07:08:56;7.00;99.90
20512;DHT22;10414;52.074;5.126;2023-11-18T07:11:30;7.00;99.90
20512;DHT22;10414;52.074;5.126;2023-11-18T07:13:58;7.00;99.90
20512;DHT22;10414;52.074;5.126;2023-11-18T07:16:28;7.00;99.90
20512;DHT22;10414;52.074;5.126;2023-11-18T07:18:55;7.00;99.90
20512;DHT22;10414;52.074;5.126;2023-11-18T07:21:22;6.90;99.90
20512;DHT22;10414;52.074;5.126;2023-11-18T07:23:51;6.90;99.90
20512;DHT22;10414;52.074;5.126;2023-11-18T07:26:18;6.90;99.90
20512;DHT22;10414;52.074;5.126;2023-11-18T07:28:46;7.00;99.90
20512;DHT22;10414;52.074;5.126;2023-11-18T07:31:15;7.00;99.90
20512;DHT22;10414;52.074;5.126;2023-11-18T07:33:47;7.00;99.90
20512;DHT22;10414;52.074;5.126;2023-11-18T07:36:18;7.00;99.90
20512;DHT22;10414;52.074;5.126;2023-11-18T07:38:45;7.00;99.90
20512;DHT22;10414;52.074;5.126;2023-11-18T07:41:15;7.00;99.90
20512;DHT22;10414;52.074;5.126;2023-11-18T07:43:50;7.10;99.90
20512;DHT22;10414;52.074;5.126;2023-11-18T07:46:20;7.10;99.90
20512;DHT22;10414;52.074;5.126;2023-11-18T07:48:50;7.10;99.90
20512;DHT22;10414;52.074;5.126;2023-11-18T07:51:17;7.00;99.90
20512;DHT22;10414;52.074;5.126;2023-11-18T07:53:47;7.10;99.90
20512;DHT22;10414;52.074;5.126;2023-11-18T07:56:13;7.20;99.90
20512;DHT22;10414;52.074;5.126;2023-11-18T07:58:42;7.00;99.90
20512;DHT22;10414;52.074;5.126;2023-11-18T08:01:12;7.10;99.90
20512;DHT22;10414;52.074;5.126;2023-11-18T08:03:41;7.20;99.90
20512;DHT22;10414;52.074;5.126;2023-11-18T08:06:10;7.10;99.90
20512;DHT22;10414;52.074;5.126;2023-11-18T08:08:39;7.30;99.90
20512;DHT22;10414;52.074;5.126;2023-11-18T08:11:06;7.20;99.90
20512;DHT22;10414;52.074;5.126;2023-11-18T08:13:34;7.20;99.90
20512;DHT22;10414;52.074;5.126;2023-11-18T08:16:01;7.20;99.90
20512;DHT22;10414;52.074;5.126;2023-11-18T08:18:29;7.10;99.90
20512;DHT22;10414;52.074;5.126;2023-11-18T08:20:56;7.10;99.90
20512;DHT22;10414;52.074;5.126;2023-11-18T08:23:25;7.20;99.90
20512;DHT22;10414;52.074;5.126;2023-11-18T08:25:56;7.20;99.90
20512;DHT22;10414;52.074;5.126;2023-11-18T08:28:23;7.20;99.90
20512;DHT22;10414;52.074;5.126;2023-11-18T08:30:50;7.20;99.90
20512;DHT22;10414;52.074;5.126;2023-11-18T08:33:19;7.30;99.90
20512;DHT22;10414;52.074;5.126;2023-11-18T08:35:48;7.30;99.90
20512;DHT22;10414;52.074;5.126;2023-11-18T08:38:18;7.40;99.90
20512;DHT22;10414;52.074;5.126;2023-11-18T08:40:45;7.40;99.90
20512;DHT22;10414;52.074;5.126;2023-11-18T08:43:14;7.50;99.90
20512;DHT22;10414;52.074;5.126;2023-11-18T08:45:42;7.50;99.90
20512;DHT22;10414;52.074;5.126;2023-11-18T08:48:08;7.60;99.90
20512;DHT22;10414;52.074;5.126;2023-11-18T08:50:37;7.50;99.90
20512;DHT22;10414;52.074;5.126;2023-11-18T08:53:06;7.50;99.90
20512;DHT22;10414;52.074;5.126;2023-11-18T08:55:40;7.50;99.90
20512;DHT22;10414;52.074;5.126;2023-11-18T08:58:12;7.40;99.90
20512;DHT22;10414;52.074;5.126;2023-11-18T09:00:45;7.60;99.90
20512;DHT22;10414;52.074;5.126;2023-11-18T09:03:20;7.50;99.90
20512;DHT22;10414;52.074;5.126;2023-11-18T09:05:55;7.40;99.90
20512;DHT22;10414;52.074;5.126;2023-11-18T09:08:34;7.50;99.90
20512;DHT22;10414;52.074;5.126;2023-11-18T09:11:02;7.60;99.90
20512;DHT22;10414;52.074;5.126;2023-11-18T09:13:31;7.50;99.90
20512;DHT22;10414;52.074;5.126;2023-11-18T09:16:00;7.50;99.90
20512;DHT22;10414;52.074;5.126;2023-11-18T09:18:29;7.40;99.90
20512;DHT22;10414;52.074;5.126;2023-11-18T09:20:58;7.40;99.90
20512;DHT22;10414;52.074;5.126;2023-11-18T09:23:33;7.60;99.90
20512;DHT22;10414;52.074;5.126;2023-11-18T09:26:00;7.60;99.90
20512;DHT22;10414;52.074;5.126;2023-11-18T09:28:28;7.70;99.90
20512;DHT22;10414;52.074;5.126;2023-11-18T09:30:55;7.50;99.90
20512;DHT22;10414;52.074;5.126;2023-11-18T09:33:24;7.50;99.90
20512;DHT22;10414;52.074;5.126;2023-11-18T09:36:01;7.50;99.90
20512;DHT22;10414;52.074;5.126;2023-11-18T09:38:28;7.40;99.90
20512;DHT22;10414;52.074;5.126;2023-11-18T09:40:58;7.40;99.90
20512;DHT22;10414;52.074;5.126;2023-11-18T09:43:29;7.40;99.90
20512;DHT22;10414;52.074;5.126;2023-11-18T09:46:05;7.40;99.90
20512;DHT22;10414;52.074;5.126;2023-11-18T09:48:42;7.40;99.90
20512;DHT22;10414;52.074;5.126;2023-11-18T09:51:17;7.50;99.90
20512;DHT22;10414;52.074;5.126;2023-11-18T09:53:49;7.50;99.90
20512;DHT22;10414;52.074;5.126;2023-11-18T09:56:25;7.60;99.90
20512;DHT22;10414;52.074;5.126;2023-11-18T09:59:07;7.70;99.90
20512;DHT22;10414;52.074;5.126;2023-11-18T10:01:42;7.80;99.90
20512;DHT22;10414;52.074;5.126;2023-11-18T10:04:09;7.90;99.90
20512;DHT22;10414;52.074;5.126;2023-11-18T10:06:37;7.90;99.90
20512;DHT22;10414;52.074;5.126;2023-11-18T10:09:07;7.90;99.90
20512;DHT22;10414;52.074;5.126;2023-11-18T10:11:43;7.90;99.90
20512;DHT22;10414;52.074;5.126;2023-11-18T10:14:13;7.90;99.90
20512;DHT22;10414;52.074;5.126;2023-11-18T10:16:41;7.90;99.90
20512;DHT22;10414;52.074;5.126;2023-11-18T10:19:11;8.10;99.90
20512;DHT22;10414;52.074;5.126;2023-11-18T10:21:40;8.00;99.90
20512;DHT22;10414;52.074;5.126;2023-11-18T10:24:08;8.20;99.90
20512;DHT22;10414;52.074;5.126;2023-11-18T10:26:43;8.30;99.90
20512;DHT22;10414;52.074;5.126;2023-11-18T10:29:10;8.20;99.90
20512;DHT22;10414;52.074;5.126;2023-11-18T10:31:42;8.30;99.90
20512;DHT22;10414;52.074;5.126;2023-11-18T10:34:12;8.30;99.90
20512;DHT22;10414;52.074;5.126;2023-11-18T10:36:41;8.30;99.90
20512;DHT22;10414;52.074;5.126;2023-11-18T10:39:11;8.40;99.90
20512;DHT22;10414;52.074;5.126;2023-11-18T10:41:43;8.40;99.90
20512;DHT22;10414;52.074;5.126;2023-11-18T10:44:13;8.30;99.90
20512;DHT22;10414;52.074;5.126;2023-11-18T10:46:51;8.30;99.90
20512;DHT22;10414;52.074;5.126;2023-11-18T10:49:24;8.40;99.90
20512;DHT22;10414;52.074;5.126;2023-11-18T10:51:51;8.40;99.90
20512;DHT22;10414;52.074;5.126;2023-11-18T10:54:18;8.40;99.90
20512;DHT22;10414;52.074;5.126;2023-11-18T10:56:52;8.50;99.90
20512;DHT22;10414;52.074;5.126;2023-11-18T10:59:22;8.50;99.90
20512;DHT22;10414;52.074;5.126;2023-11-18T11:01:49;8.60;99.90
20512;DHT22;10414;52.074;5.126;2023-11-18T11:04:16;8.70;99.90
20512;DHT22;10414;52.074;5.126;2023-11-18T11:06:47;8.60;99.90
20512;DHT22;10414;52.074;5.126;2023-11-18T11:09:20;8.50;99.90
20512;DHT22;10414;52.074;5.126;2023-11-18T11:11:53;8.50;99.90
20512;DHT22;10414;52.074;5.126;2023-11-18T11:14:21;8.50;99.90
20512;DHT22;10414;52.074;5.126;2023-11-18T11:16:52;8.50;99.90
20512;DHT22;10414;52.074;5.126;2023-11-18T11:19:24;8.50;99.90
20512;DHT22;10414;52.074;5.126;2023-11-18T11:22:02;8.40;99.90
20512;DHT22;10414;52.074;5.126;2023-11-18T11:24:40;8.30;99.90
20512;DHT22;10414;52.074;5.126;2023-11-18T11:27:21;8.30;99.90
20512;DHT22;10414;52.074;5.126;2023-11-18T11:29:59;8.30;99.90
20512;DHT22;10414;52.074;5.126;2023-11-18T11:32:39;8.30;99.90
20512;DHT22;10414;52.074;5.126;2023-11-18T11:35:10;8.40;99.90
20512;DHT22;10414;52.074;5.126;2023-11-18T11:37:44;8.40;99.90
20512;DHT22;10414;52.074;5.126;2023-11-18T11:40:13;8.40;99.90
20512;DHT22;10414;52.074;5.126;2023-11-18T11:42:52;8.50;99.90
20512;DHT22;10414;52.074;5.126;2023-11-18T11:45:22;8.50;99.90
20512;DHT22;10414;52.074;5.126;2023-11-18T11:47:54;8.60;99.90
20512;DHT22;10414;52.074;5.126;2023-11-18T11:50:48;8.50;99.90
20512;DHT22;10414;52.074;5.126;2023-11-18T11:53:21;8.60;99.90
20512;DHT22;10414;52.074;5.126;2023-11-18T11:55:52;8.60;99.90
20512;DHT22;10414;52.074;5.126;2023-11-18T11:58:27;8.50;99.90
20512;DHT22;10414;52.074;5.126;2023-11-18T12:01:00;8.60;99.90
20512;DHT22;10414;52.074;5.126;2023-11-18T12:03:33;8.60;99.90
20512;DHT22;10414;52.074;5.126;2023-11-18T12:06:06;8.60;99.90
20512;DHT22;10414;52.074;5.126;2023-11-18T12:08:35;8.60;99.90
20512;DHT22;10414;52.074;5.126;2023-11-18T12:11:04;8.70;99.90
20512;DHT22;10414;52.074;5.126;2023-11-18T12:13:37;8.70;99.90
20512;DHT22;10414;52.074;5.126;2023-11-18T12:16:06;8.60;99.90
20512;DHT22;10414;52.074;5.126;2023-11-18T12:18:35;8.80;99.90
20512;DHT22;10414;52.074;5.126;2023-11-18T12:21:03;8.70;99.90
20512;DHT22;10414;52.074;5.126;2023-11-18T12:23:30;8.60;99.90
20512;DHT22;10414;52.074;5.126;2023-11-18T12:25:59;8.60;99.90
20512;DHT22;10414;52.074;5.126;2023-11-18T12:28:32;8.60;99.90
20512;DHT22;10414;52.074;5.126;2023-11-18T12:31:05;8.60;99.90
20512;DHT22;10414;52.074;5.126;2023-11-18T12:34:00;8.60;99.90
20512;DHT22;10414;52.074;5.126;2023-11-18T12:39:58;8.60;99.90
20512;DHT22;10414;52.074;5.126;2023-11-18T12:42:58;8.70;99.90
20512;DHT22;10414;52.074;5.126;2023-11-18T12:45:44;8.70;99.90
20512;DHT22;10414;52.074;5.126;2023-11-18T12:48:22;8.60;99.90
20512;DHT22;10414;52.074;5.126;2023-11-18T12:50:53;8.60;99.90
20512;DHT22;10414;52.074;5.126;2023-11-18T12:53:23;8.60;99.90
20512;DHT22;10414;52.074;5.126;2023-11-18T12:55:52;8.60;99.90
20512;DHT22;10414;52.074;5.126;2023-11-18T12:58:19;8.70;99.90
20512;DHT22;10414;52.074;5.126;2023-11-18T13:00:48;8.60;99.90
20512;DHT22;10414;52.074;5.126;2023-11-18T13:03:15;8.70;99.90
20512;DHT22;10414;52.074;5.126;2023-11-18T13:05:45;8.70;99.90
20512;DHT22;10414;52.074;5.126;2023-11-18T13:08:13;8.70;99.90
20512;DHT22;10414;52.074;5.126;2023-11-18T13:10:44;8.80;99.90
20512;DHT22;10414;52.074;5.126;2023-11-18T13:13:11;8.70;99.90
20512;DHT22;10414;52.074;5.126;2023-11-18T13:15:40;8.70;99.90
20512;DHT22;10414;52.074;5.126;2023-11-18T13:18:07;8.70;99.90
20512;DHT22;10414;52.074;5.126;2023-11-18T13:20:40;8.70;99.90
20512;DHT22;10414;52.074;5.126;2023-11-18T13:23:10;8.80;99.90
20512;DHT22;10414;52.074;5.126;2023-11-18T13:25:38;8.80;99.90
20512;DHT22;10414;52.074;5.126;2023-11-18T13:28:08;8.80;99.90
20512;DHT22;10414;52.074;5.126;2023-11-18T13:30:36;8.90;99.90
20512;DHT22;10414;52.074;5.126;2023-11-18T13:33:06;8.90;99.90
20512;DHT22;10414;52.074;5.126;2023-11-18T13:35:35;8.80;99.90
20512;DHT22;10414;52.074;5.126;2023-11-18T13:38:02;8.80;99.90
20512;DHT22;10414;52.074;5.126;2023-11-18T13:40:43;8.80;99.90
20512;DHT22;10414;52.074;5.126;2023-11-18T13:43:10;8.80;99.90
20512;DHT22;10414;52.074;5.126;2023-11-18T13:45:37;8.90;99.90
20512;DHT22;10414;52.074;5.126;2023-11-18T13:48:05;8.90;99.90
20512;DHT22;10414;52.074;5.126;2023-11-18T13:50:34;9.00;99.90
20512;DHT22;10414;52.074;5.126;2023-11-18T13:53:01;9.00;99.90
20512;DHT22;10414;52.074;5.126;2023-11-18T13:55:28;9.00;99.90
20512;DHT22;10414;52.074;5.126;2023-11-18T13:57:59;8.90;99.90
20512;DHT22;10414;52.074;5.126;2023-11-18T14:00:26;8.90;99.90
20512;DHT22;10414;52.074;5.126;2023-11-18T14:02:54;8.90;99.90
20512;DHT22;10414;52.074;5.126;2023-11-18T14:05:24;8.90;99.90
20512;DHT22;10414;52.074;5.126;2023-11-18T14:07:53;8.90;99.90
20512;DHT22;10414;52.074;5.126;2023-11-18T14:10:21;8.90;99.90
20512;DHT22;10414;52.074;5.126;2023-11-18T14:13:02;9.00;99.90
20512;DHT22;10414;52.074;5.126;2023-11-18T14:15:31;8.90;99.90
20512;DHT22;10414;52.074;5.126;2023-11-18T14:18:02;9.00;99.90
20512;DHT22;10414;52.074;5.126;2023-11-18T14:20:32;8.90;99.90
20512;DHT22;10414;52.074;5.126;2023-11-18T14:23:03;8.90;99.90
20512;DHT22;10414;52.074;5.126;2023-11-18T14:25:30;8.90;99.90
20512;DHT22;10414;52.074;5.126;2023-11-18T14:27:58;9.00;99.90
20512;DHT22;10414;52.074;5.126;2023-11-18T14:30:29;9.00;99.90
20512;DHT22;10414;52.074;5.126;2023-11-18T14:32:56;8.90;99.90
20512;DHT22;10414;52.074;5.126;2023-11-18T14:35:23;9.00;99.90
20512;DHT22;10414;52.074;5.126;2023-11-18T14:37:50;9.00;99.90
20512;DHT22;10414;52.074;5.126;2023-11-18T14:40:17;9.00;99.90
20512;DHT22;10414;52.074;5.126;2023-11-18T14:42:46;9.00;99.90
20512;DHT22;10414;52.074;5.126;2023-11-18T14:45:16;9.00;99.90
20512;DHT22;10414;52.074;5.126;2023-11-18T14:47:44;9.00;99.90
20512;DHT22;10414;52.074;5.126;2023-11-18T14:50:13;9.00;99.90
20512;DHT22;10414;52.074;5.126;2023-11-18T14:52:44;9.00;99.90
20512;DHT22;10414;52.074;5.126;2023-11-18T14:55:13;9.10;99.90
20512;DHT22;10414;52.074;5.126;2023-11-18T14:57:43;9.10;99.90
20512;DHT22;10414;52.074;5.126;2023-11-18T15:00:11;9.10;99.90
20512;DHT22;10414;52.074;5.126;2023-11-18T15:02:46;9.10;99.90
20512;DHT22;10414;52.074;5.126;2023-11-18T15:05:14;9.10;99.90
20512;DHT22;10414;52.074;5.126;2023-11-18T15:07:44;9.10;99.90
20512;DHT22;10414;52.074;5.126;2023-11-18T15:10:14;9.10;99.90
20512;DHT22;10414;52.074;5.126;2023-11-18T15:12:49;9.00;99.90
20512;DHT22;10414;52.074;5.126;2023-11-18T15:15:19;9.00;99.90
20512;DHT22;10414;52.074;5.126;2023-11-18T15:17:48;9.00;99.90
20512;DHT22;10414;52.074;5.126;2023-11-18T15:20:16;9.00;99.90
20512;DHT22;10414;52.074;5.126;2023-11-18T15:22:45;9.10;99.90
20512;DHT22;10414;52.074;5.126;2023-11-18T15:25:13;9.10;99.90
20512;DHT22;10414;52.074;5.126;2023-11-18T15:27:43;9.10;99.90
20512;DHT22;10414;52.074;5.126;2023-11-18T15:30:12;9.10;99.90
20512;DHT22;10414;52.074;5.126;2023-11-18T15:32:44;9.10;99.90
20512;DHT22;10414;52.074;5.126;2023-11-18T15:35:13;9.10;99.90
20512;DHT22;10414;52.074;5.126;2023-11-18T15:37:42;9.10;99.90
20512;DHT22;10414;52.074;5.126;2023-11-18T15:40:13;9.10;99.90
20512;DHT22;10414;52.074;5.126;2023-11-18T15:42:41;9.10;99.90
20512;DHT22;10414;52.074;5.126;2023-11-18T15:45:12;9.10;99.90
20512;DHT22;10414;52.074;5.126;2023-11-18T15:47:40;9.10;99.90
20512;DHT22;10414;52.074;5.126;2023-11-18T15:50:13;9.10;99.90
20512;DHT22;10414;52.074;5.126;2023-11-18T15:52:41;9.20;99.90
20512;DHT22;10414;52.074;5.126;2023-11-18T15:55:09;9.20;99.90
20512;DHT22;10414;52.074;5.126;2023-11-18T15:57:39;9.20;99.90
20512;DHT22;10414;52.074;5.126;2023-11-18T16:00:08;9.20;99.90
20512;DHT22;10414;52.074;5.126;2023-11-18T16:02:40;9.20;99.90
20512;DHT22;10414;52.074;5.126;2023-11-18T16:05:07;9.20;99.90
20512;DHT22;10414;52.074;5.126;2023-11-18T16:07:36;9.30;99.90